Time;durP1;ratioP1;P1;durP2;ratioP2;P2;SDS_P1;SDS_P2;PMS_P1;PMS_P2;Temp;Humidity;BMP_temperature;BMP_pressure;BME280_temperature;BME280_humidity;BME280_pressure;Samples;Min_cycle;Max_cycle;Signal;HPM_P1;HPM_P2
2022/09/06 00:02:52;;;;;;;15.35;11.07;;;;;;;;;;6203894;23;20191;-86
2022/09/06 00:05:56;;;;;;;17.05;11.32;;;;;;;;;;6223511;23;20174;-86
2022/09/06 00:09:03;;;;;;;17.60;11.40;;;;;;;;;;6206273;23;20781;-86
2022/09/06 00:12:08;;;;;;;17.27;10.95;;;;;;;;;;6221681;23;20179;-88
2022/09/06 00:15:13;;;;;;;16.42;10.35;;;;;;;;;;6202989;23;20174;-88
2022/09/06 00:18:19;;;;;;;16.73;11.63;;;;;;;;;;6220735;23;20291;-87
2022/09/06 00:21:24;;;;;;;16.70;11.40;;;;;;;;;;6221597;23;20170;-87
2022/09/06 00:24:31;;;;;;;19.90;12.35;;;;;;;;;;6222156;23;20619;-86
2022/09/06 00:27:36;;;;;;;17.98;11.77;;;;;;;;;;6192678;23;20207;-87
2022/09/06 00:30:41;;;;;;;16.02;10.88;;;;;;;;;;6192337;23;20188;-85
2022/09/06 00:33:46;;;;;;;17.20;11.23;;;;;;;;;;6191206;23;20331;-88
2022/09/06 00:36:51;;;;;;;18.60;10.40;;;;;;;;;;6193916;23;20211;-88
2022/09/06 00:39:58;;;;;;;15.05;10.45;;;;;;;;;;6194600;23;20180;-87
2022/09/06 00:43:03;;;;;;;16.30;11.25;;;;;;;;;;6195015;23;20837;-88
2022/09/06 00:46:09;;;;;;;16.52;11.32;;;;;;;;;;6194532;23;20238;-88
2022/09/06 00:49:20;;;;;;;17.23;11.38;;;;;;;;;;6192440;23;20168;-87
2022/09/06 00:52:26;;;;;;;17.00;11.70;;;;;;;;;;6193261;23;20176;-88
2022/09/06 00:55:33;;;;;;;17.50;11.35;;;;;;;;;;6193627;23;20176;-88
2022/09/06 00:58:38;;;;;;;19.17;11.05;;;;;;;;;;6194416;23;20187;-88
2022/09/06 01:01:43;;;;;;;15.23;10.15;;;;;;;;;;6192826;23;20319;-88
2022/09/06 01:04:50;;;;;;;17.25;10.55;;;;;;;;;;6193407;23;20254;-88
2022/09/06 01:07:59;;;;;;;17.48;10.70;;;;;;;;;;6192131;23;20210;-86
2022/09/06 01:11:11;;;;;;;17.17;10.70;;;;;;;;;;6193603;23;20188;-87
2022/09/06 01:14:22;;;;;;;20.00;11.30;;;;;;;;;;6193432;23;20492;-87
2022/09/06 01:17:34;;;;;;;20.45;11.20;;;;;;;;;;6193222;23;20167;-87
2022/09/06 01:20:47;;;;;;;18.02;10.52;;;;;;;;;;6191454;23;20163;-87
2022/09/06 01:24:03;;;;;;;16.52;10.90;;;;;;;;;;6193060;23;20168;-87
2022/09/06 01:27:25;;;;;;;17.50;10.02;;;;;;;;;;6215669;23;20781;-89
2022/09/06 01:30:34;;;;;;;16.40;10.70;;;;;;;;;;6222277;23;20168;-87
2022/09/06 01:33:43;;;;;;;15.88;10.52;;;;;;;;;;6203489;23;20159;-87
2022/09/06 01:36:49;;;;;;;14.85;10.70;;;;;;;;;;6204327;23;20167;-87
2022/09/06 01:39:54;;;;;;;17.08;10.23;;;;;;;;;;6222280;23;20175;-89
2022/09/06 01:42:59;;;;;;;17.70;10.63;;;;;;;;;;6222737;23;20448;-87
2022/09/06 01:46:13;;;;;;;17.98;9.98;;;;;;;;;;6206276;23;20171;-89
2022/09/06 01:49:24;;;;;;;15.27;11.15;;;;;;;;;;6204946;23;20238;-89
2022/09/06 01:52:34;;;;;;;16.65;10.85;;;;;;;;;;6181167;23;20172;-88
2022/09/06 01:55:44;;;;;;;20.20;11.23;;;;;;;;;;6207266;23;20615;-88
2022/09/06 01:58:59;;;;;;;19.75;10.98;;;;;;;;;;6207420;23;20167;-87
2022/09/06 02:02:08;;;;;;;16.50;10.82;;;;;;;;;;6223641;23;20296;-87
2022/09/06 02:05:16;;;;;;;17.80;11.57;;;;;;;;;;6205327;23;20157;-84
2022/09/06 02:08:26;;;;;;;18.67;11.35;;;;;;;;;;6206630;23;20187;-88
2022/09/06 02:11:32;;;;;;;19.83;12.05;;;;;;;;;;6206957;23;20604;-87
2022/09/06 02:14:40;;;;;;;26.98;12.15;;;;;;;;;;6207566;23;20245;-89
2022/09/06 02:17:57;;;;;;;18.80;12.00;;;;;;;;;;6204436;23;20254;-88
2022/09/06 02:21:04;;;;;;;18.40;11.52;;;;;;;;;;6222092;23;20194;-87
2022/09/06 02:24:10;;;;;;;17.38;11.88;;;;;;;;;;6205494;23;20167;-87
2022/09/06 02:27:18;;;;;;;18.45;11.85;;;;;;;;;;6192886;23;20215;-88
2022/09/06 02:30:23;;;;;;;21.88;14.15;;;;;;;;;;6193276;23;20164;-88
2022/09/06 02:33:31;;;;;;;20.50;12.90;;;;;;;;;;6193054;23;20175;-88
2022/09/06 02:36:38;;;;;;;25.85;13.38;;;;;;;;;;6192768;23;20176;-88
2022/09/06 02:39:43;;;;;;;20.58;13.07;;;;;;;;;;6193668;23;20147;-88
2022/09/06 02:42:48;;;;;;;22.27;14.20;;;;;;;;;;6194643;23;20497;-88
2022/09/06 02:45:53;;;;;;;27.10;13.88;;;;;;;;;;6194316;23;20226;-88
2022/09/06 02:48:59;;;;;;;28.48;14.27;;;;;;;;;;6191689;23;20214;-88
2022/09/06 02:52:05;;;;;;;21.50;13.32;;;;;;;;;;6191131;23;20171;-87
2022/09/06 02:55:10;;;;;;;20.38;13.20;;;;;;;;;;6191889;23;20176;-86
2022/09/06 02:58:15;;;;;;;23.50;13.18;;;;;;;;;;6192452;23;20168;-88
2022/09/06 03:01:20;;;;;;;24.40;14.52;;;;;;;;;;6192178;23;20172;-88
2022/09/06 03:04:27;;;;;;;24.60;15.10;;;;;;;;;;6193239;23;20596;-87
2022/09/06 03:07:32;;;;;;;28.27;14.07;;;;;;;;;;6192399;23;20195;-86
2022/09/06 03:10:37;;;;;;;23.83;14.40;;;;;;;;;;6191500;23;20169;-88
2022/09/06 03:13:42;;;;;;;22.48;12.43;;;;;;;;;;6193292;23;20251;-89
2022/09/06 03:16:47;;;;;;;22.73;13.73;;;;;;;;;;6192483;23;20500;-87
2022/09/06 03:19:53;;;;;;;24.77;14.23;;;;;;;;;;6193474;23;20222;-87
2022/09/06 03:22:59;;;;;;;24.73;14.80;;;;;;;;;;6191954;23;20163;-88
2022/09/06 03:26:04;;;;;;;23.98;13.98;;;;;;;;;;6202010;23;20182;-87
2022/09/06 03:29:09;;;;;;;23.13;13.77;;;;;;;;;;6224463;23;20176;-88
2022/09/06 03:32:14;;;;;;;21.55;13.15;;;;;;;;;;6225036;23;20179;-88
2022/09/06 03:35:21;;;;;;;31.90;13.90;;;;;;;;;;6206648;23;20167;-86
2022/09/06 03:38:26;;;;;;;24.13;13.38;;;;;;;;;;6224819;23;20172;-87
2022/09/06 03:41:31;;;;;;;25.55;14.00;;;;;;;;;;6206392;23;20218;-87
2022/09/06 03:44:36;;;;;;;25.88;13.40;;;;;;;;;;6205625;23;20175;-87
2022/09/06 03:47:41;;;;;;;25.77;14.38;;;;;;;;;;6207689;23;20638;-89
2022/09/06 03:50:48;;;;;;;27.52;14.07;;;;;;;;;;6206888;23;20230;-87
2022/09/06 03:53:54;;;;;;;28.85;13.95;;;;;;;;;;6206298;23;20253;-87
2022/09/06 03:56:59;;;;;;;27.40;13.30;;;;;;;;;;6206413;23;20171;-87
2022/09/06 04:00:05;;;;;;;30.45;13.68;;;;;;;;;;6223933;23;20198;-87
2022/09/06 04:03:20;;;;;;;29.25;13.50;;;;;;;;;;6225418;23;20207;-87
2022/09/06 04:06:27;;;;;;;23.80;13.52;;;;;;;;;;6207298;23;20167;-88
2022/09/06 04:09:32;;;;;;;29.58;12.70;;;;;;;;;;6225136;23;20167;-87
2022/09/06 04:12:37;;;;;;;25.02;12.63;;;;;;;;;;6209112;23;20187;-89
2022/09/06 04:15:46;;;;;;;45.10;12.70;;;;;;;;;;6209216;23;20242;-87
2022/09/06 04:18:51;;;;;;;29.90;13.68;;;;;;;;;;6209573;23;20159;-87
2022/09/06 04:21:57;;;;;;;27.77;13.63;;;;;;;;;;6210219;23;20174;-88
2022/09/06 04:25:02;;;;;;;26.27;13.25;;;;;;;;;;6209759;23;20170;-88
2022/09/06 04:28:07;;;;;;;38.65;13.40;;;;;;;;;;6209052;23;20237;-86
2022/09/06 04:31:12;;;;;;;21.83;12.93;;;;;;;;;;6209651;23;20215;-87
2022/09/06 04:34:18;;;;;;;33.33;13.38;;;;;;;;;;6210184;23;20171;-86
2022/09/06 04:37:25;;;;;;;36.13;12.40;;;;;;;;;;6211528;23;20166;-87
2022/09/06 04:41:00;;;;;;;32.15;13.55;;;;;;;;;;6210014;23;20171;-87
2022/09/06 04:44:05;;;;;;;32.65;13.65;;;;;;;;;;6226689;23;20198;-87
2022/09/06 04:47:14;;;;;;;23.67;13.40;;;;;;;;;;6210631;23;20653;-88
2022/09/06 04:50:19;;;;;;;25.63;13.63;;;;;;;;;;6228099;23;20167;-89
2022/09/06 04:53:27;;;;;;;23.55;12.35;;;;;;;;;;6210275;23;20301;-87
2022/09/06 04:56:32;;;;;;;21.67;12.60;;;;;;;;;;6208960;23;20178;-87
2022/09/06 04:59:37;;;;;;;22.75;12.82;;;;;;;;;;6210188;23;20155;-87
2022/09/06 05:02:43;;;;;;;26.02;13.63;;;;;;;;;;6209664;23;20171;-87
2022/09/06 05:05:49;;;;;;;26.63;13.00;;;;;;;;;;6208476;23;20242;-86
2022/09/06 05:08:55;;;;;;;31.90;13.27;;;;;;;;;;6227965;23;20632;-88
2022/09/06 05:12:00;;;;;;;28.77;13.45;;;;;;;;;;6210825;23;20218;-86
2022/09/06 05:15:06;;;;;;;26.00;14.23;;;;;;;;;;6208406;23;20175;-87
2022/09/06 05:18:11;;;;;;;25.38;12.25;;;;;;;;;;6209873;23;20179;-86
2022/09/06 05:21:16;;;;;;;46.47;12.93;;;;;;;;;;6208184;23;20503;-86
2022/09/06 05:24:22;;;;;;;24.48;12.52;;;;;;;;;;6208379;23;20221;-87
2022/09/06 05:27:27;;;;;;;26.27;13.05;;;;;;;;;;6196023;23;20302;-88
2022/09/06 05:30:32;;;;;;;26.45;12.35;;;;;;;;;;6193860;23;20167;-88
2022/09/06 05:33:38;;;;;;;25.13;11.90;;;;;;;;;;6196066;23;20156;-88
2022/09/06 05:36:44;;;;;;;31.48;12.35;;;;;;;;;;6194517;23;20553;-87
2022/09/06 05:39:51;;;;;;;25.77;14.18;;;;;;;;;;6193710;23;20199;-87
2022/09/06 05:42:56;;;;;;;22.80;13.02;;;;;;;;;;6194955;23;20222;-88
2022/09/06 05:46:01;;;;;;;26.38;14.15;;;;;;;;;;6196183;23;20179;-87
2022/09/06 05:49:07;;;;;;;38.50;13.95;;;;;;;;;;6194974;23;20200;-87
2022/09/06 05:52:12;;;;;;;27.90;15.80;;;;;;;;;;6193385;23;20171;-86
2022/09/06 05:55:18;;;;;;;30.83;14.70;;;;;;;;;;6195491;23;20195;-87
2022/09/06 05:58:23;;;;;;;28.35;14.10;;;;;;;;;;6195714;23;20296;-88
2022/09/06 06:01:31;;;;;;;25.45;13.65;;;;;;;;;;6194609;23;20167;-87
2022/09/06 06:04:36;;;;;;;29.55;13.60;;;;;;;;;;6195207;23;20219;-86
2022/09/06 12:50:30;;;;;;;4.72;2.10;;;;;;;;;;6193220;22;20198;-91
2022/09/06 12:53:35;;;;;;;5.28;2.25;;;;;;;;;;6209905;23;20174;-90
2022/09/06 12:56:40;;;;;;;5.43;2.25;;;;;;;;;;6229057;23;20592;-90
2022/09/06 12:59:53;;;;;;;4.97;2.13;;;;;;;;;;6207772;23;20166;-89
2022/09/06 13:03:04;;;;;;;4.15;2.35;;;;;;;;;;6205934;23;20162;-89
2022/09/06 13:06:13;;;;;;;5.43;2.55;;;;;;;;;;6206741;23;20163;-89
2022/09/06 13:09:20;;;;;;;3.83;2.53;;;;;;;;;;6207958;23;20198;-90
2022/09/06 13:12:28;;;;;;;5.20;2.40;;;;;;;;;;6208597;23;20167;-89
2022/09/06 13:15:33;;;;;;;4.38;2.58;;;;;;;;;;6208769;23;20170;-89
2022/09/06 13:18:39;;;;;;;5.22;2.70;;;;;;;;;;6204271;23;20260;-89
2022/09/06 13:21:48;;;;;;;6.25;3.38;;;;;;;;;;6209128;23;20155;-88
2022/09/06 13:24:56;;;;;;;5.57;2.65;;;;;;;;;;6210632;23;20166;-90
2022/09/06 13:28:02;;;;;;;3.00;2.33;;;;;;;;;;6215464;23;20194;-90
2022/09/06 13:34:55;;;;;;;5.88;2.50;;;;;;;;;;6209530;23;20198;-89
2022/09/06 13:38:19;;;;;;;3.30;2.63;;;;;;;;;;6217368;23;20178;-89
2022/09/06 13:41:37;;;;;;;3.63;2.33;;;;;;;;;;6210037;23;20163;-89
2022/09/06 13:44:42;;;;;;;3.42;2.90;;;;;;;;;;6207464;23;20238;-87
2022/09/06 13:48:21;;;;;;;4.25;3.00;;;;;;;;;;6209155;23;20147;-88
2022/09/06 13:51:27;;;;;;;4.82;2.50;;;;;;;;;;6208028;23;20189;-89
2022/09/06 13:54:34;;;;;;;4.13;2.15;;;;;;;;;;6209569;23;20171;-88
2022/09/06 13:57:40;;;;;;;3.30;2.35;;;;;;;;;;6209061;23;20158;-90
2022/09/06 14:00:46;;;;;;;4.47;2.38;;;;;;;;;;6205957;23;20150;-90
2022/09/06 14:03:51;;;;;;;7.53;2.65;;;;;;;;;;6207896;23;20249;-89
2022/09/06 14:06:56;;;;;;;3.78;2.55;;;;;;;;;;6209540;23;20496;-89
2022/09/06 14:10:02;;;;;;;6.45;2.58;;;;;;;;;;6208314;23;20237;-91
2022/09/06 14:13:09;;;;;;;3.63;2.60;;;;;;;;;;6205558;23;20213;-89
2022/09/06 14:16:14;;;;;;;8.52;2.85;;;;;;;;;;6207445;23;20166;-88
2022/09/06 14:19:19;;;;;;;8.07;5.28;;;;;;;;;;6207753;23;20171;-88
2022/09/06 14:22:25;;;;;;;4.85;2.78;;;;;;;;;;6207164;23;20618;-89
2022/09/06 14:25:30;;;;;;;6.18;3.00;;;;;;;;;;6207700;23;20169;-88
2022/09/06 14:28:37;;;;;;;6.18;3.35;;;;;;;;;;6210733;23;20234;-88
2022/09/06 14:31:42;;;;;;;4.82;3.10;;;;;;;;;;6209673;23;20166;-88
2022/09/06 14:34:47;;;;;;;7.30;3.13;;;;;;;;;;6207606;23;20158;-88
2022/09/06 14:37:52;;;;;;;4.93;3.50;;;;;;;;;;6206684;23;20167;-88
2022/09/06 14:41:03;;;;;;;4.93;2.75;;;;;;;;;;6207873;23;20162;-89
2022/09/06 14:47:32;;;;;;;5.80;2.95;;;;;;;;;;6214184;23;20166;-88
2022/09/06 14:50:40;;;;;;;7.68;3.03;;;;;;;;;;6228279;23;20186;-89
2022/09/06 14:53:46;;;;;;;8.85;3.25;;;;;;;;;;6206295;23;20541;-88
2022/09/06 14:56:51;;;;;;;9.45;3.33;;;;;;;;;;6207067;23;20582;-87
2022/09/06 15:00:19;;;;;;;15.30;3.33;;;;;;;;;;6209783;23;20174;-89
2022/09/06 15:03:25;;;;;;;7.93;3.17;;;;;;;;;;6206711;23;20166;-89
2022/09/06 15:06:31;;;;;;;5.82;3.20;;;;;;;;;;6209394;23;20246;-87
2022/09/06 15:09:36;;;;;;;5.18;3.20;;;;;;;;;;6210987;23;20190;-89
2022/09/06 15:12:41;;;;;;;6.25;3.00;;;;;;;;;;6209208;23;20170;-89
2022/09/06 15:15:48;;;;;;;6.05;3.20;;;;;;;;;;6205932;23;20182;-89
2022/09/06 15:18:54;;;;;;;4.28;2.90;;;;;;;;;;6209973;23;20215;-87
2022/09/06 15:21:59;;;;;;;9.82;3.63;;;;;;;;;;6207145;23;20257;-89
